sensor_id;sensor_type;location;lat;lon;timestamp;temperature;humidity
56725;DHT22;42608;52.776;6.968;2022-07-23T00:00:06;15.90;99.90
56725;DHT22;42608;52.776;6.968;2022-07-23T00:02:31;15.90;99.90
56725;DHT22;42608;52.776;6.968;2022-07-23T00:04:57;15.90;99.90
56725;DHT22;42608;52.776;6.968;2022-07-23T00:07:22;15.90;99.90
56725;DHT22;42608;52.776;6.968;2022-07-23T00:09:48;15.90;99.90
56725;DHT22;42608;52.776;6.968;2022-07-23T00:12:13;15.90;99.90
56725;DHT22;42608;52.776;6.968;2022-07-23T00:14:39;15.80;99.90
56725;DHT22;42608;52.776;6.968;2022-07-23T00:17:05;15.80;99.90
56725;DHT22;42608;52.776;6.968;2022-07-23T00:19:30;15.80;99.90
56725;DHT22;42608;52.776;6.968;2022-07-23T00:21:56;15.80;99.90
56725;DHT22;42608;52.776;6.968;2022-07-23T00:24:21;15.80;99.90
56725;DHT22;42608;52.776;6.968;2022-07-23T00:26:47;15.80;99.90
56725;DHT22;42608;52.776;6.968;2022-07-23T00:29:12;15.80;99.90
56725;DHT22;42608;52.776;6.968;2022-07-23T00:31:38;15.80;99.90
56725;DHT22;42608;52.776;6.968;2022-07-23T00:34:03;15.80;99.90
56725;DHT22;42608;52.776;6.968;2022-07-23T00:36:29;15.70;99.90
56725;DHT22;42608;52.776;6.968;2022-07-23T00:38:56;15.70;99.90
56725;DHT22;42608;52.776;6.968;2022-07-23T00:41:22;15.70;99.90
56725;DHT22;42608;52.776;6.968;2022-07-23T00:43:48;15.70;99.90
56725;DHT22;42608;52.776;6.968;2022-07-23T00:46:18;15.70;99.90
56725;DHT22;42608;52.776;6.968;2022-07-23T00:48:43;15.70;99.90
56725;DHT22;42608;52.776;6.968;2022-07-23T00:51:09;15.70;99.90
56725;DHT22;42608;52.776;6.968;2022-07-23T00:53:34;15.60;99.90
56725;DHT22;42608;52.776;6.968;2022-07-23T00:56:00;15.60;99.90
56725;DHT22;42608;52.776;6.968;2022-07-23T00:58:26;15.60;99.90
56725;DHT22;42608;52.776;6.968;2022-07-23T01:00:51;15.60;99.90
56725;DHT22;42608;52.776;6.968;2022-07-23T01:03:17;15.50;99.90
56725;DHT22;42608;52.776;6.968;2022-07-23T01:05:42;15.50;99.90
56725;DHT22;42608;52.776;6.968;2022-07-23T01:08:09;15.50;99.90
56725;DHT22;42608;52.776;6.968;2022-07-23T01:10:34;15.50;99.90
56725;DHT22;42608;52.776;6.968;2022-07-23T01:13:00;15.50;99.90
56725;DHT22;42608;52.776;6.968;2022-07-23T01:15:27;15.50;99.90
56725;DHT22;42608;52.776;6.968;2022-07-23T01:17:52;15.40;99.90
56725;DHT22;42608;52.776;6.968;2022-07-23T01:20:18;15.40;99.90
56725;DHT22;42608;52.776;6.968;2022-07-23T01:22:44;15.40;99.90
56725;DHT22;42608;52.776;6.968;2022-07-23T01:25:09;15.40;99.90
56725;DHT22;42608;52.776;6.968;2022-07-23T01:27:35;15.30;99.90
56725;DHT22;42608;52.776;6.968;2022-07-23T01:30:01;15.30;99.90
56725;DHT22;42608;52.776;6.968;2022-07-23T01:32:27;15.30;99.90
56725;DHT22;42608;52.776;6.968;2022-07-23T01:34:52;15.30;99.90
56725;DHT22;42608;52.776;6.968;2022-07-23T01:37:18;15.30;99.90
56725;DHT22;42608;52.776;6.968;2022-07-23T01:39:43;15.30;99.90
56725;DHT22;42608;52.776;6.968;2022-07-23T01:42:09;15.20;99.90
56725;DHT22;42608;52.776;6.968;2022-07-23T01:44:35;15.20;99.90
56725;DHT22;42608;52.776;6.968;2022-07-23T01:47:00;15.20;99.90
56725;DHT22;42608;52.776;6.968;2022-07-23T01:49:26;15.20;99.90
56725;DHT22;42608;52.776;6.968;2022-07-23T01:51:51;15.20;99.90
56725;DHT22;42608;52.776;6.968;2022-07-23T01:54:27;15.20;99.90
56725;DHT22;42608;52.776;6.968;2022-07-23T01:56:53;15.10;99.90
56725;DHT22;42608;52.776;6.968;2022-07-23T01:59:18;15.10;99.90
56725;DHT22;42608;52.776;6.968;2022-07-23T02:01:44;15.10;99.90
56725;DHT22;42608;52.776;6.968;2022-07-23T02:04:09;15.20;99.90
56725;DHT22;42608;52.776;6.968;2022-07-23T02:06:35;15.10;99.90
56725;DHT22;42608;52.776;6.968;2022-07-23T02:09:00;15.10;99.90
56725;DHT22;42608;52.776;6.968;2022-07-23T02:11:26;15.20;99.90
56725;DHT22;42608;52.776;6.968;2022-07-23T02:13:52;15.10;99.90
56725;DHT22;42608;52.776;6.968;2022-07-23T02:16:17;15.10;99.90
56725;DHT22;42608;52.776;6.968;2022-07-23T02:18:43;15.10;99.90
56725;DHT22;42608;52.776;6.968;2022-07-23T02:21:08;15.10;99.90
56725;DHT22;42608;52.776;6.968;2022-07-23T02:23:34;15.20;99.90
56725;DHT22;42608;52.776;6.968;2022-07-23T02:25:59;15.10;99.90
56725;DHT22;42608;52.776;6.968;2022-07-23T02:28:25;15.20;99.90
56725;DHT22;42608;52.776;6.968;2022-07-23T02:30:51;15.10;99.90
56725;DHT22;42608;52.776;6.968;2022-07-23T02:33:16;15.10;99.90
56725;DHT22;42608;52.776;6.968;2022-07-23T02:35:42;15.20;99.90
56725;DHT22;42608;52.776;6.968;2022-07-23T02:38:07;15.10;99.90
56725;DHT22;42608;52.776;6.968;2022-07-23T02:40:33;15.10;99.90
56725;DHT22;42608;52.776;6.968;2022-07-23T02:42:58;15.10;99.90
56725;DHT22;42608;52.776;6.968;2022-07-23T02:45:24;15.10;99.90
56725;DHT22;42608;52.776;6.968;2022-07-23T02:47:49;15.10;99.90
56725;DHT22;42608;52.776;6.968;2022-07-23T02:50:15;15.10;99.90
56725;DHT22;42608;52.776;6.968;2022-07-23T02:52:40;15.10;99.90
56725;DHT22;42608;52.776;6.968;2022-07-23T02:55:06;15.00;99.90
56725;DHT22;42608;52.776;6.968;2022-07-23T02:57:32;15.00;99.90
56725;DHT22;42608;52.776;6.968;2022-07-23T02:59:57;15.00;99.90
56725;DHT22;42608;52.776;6.968;2022-07-23T03:02:23;15.10;99.90
56725;DHT22;42608;52.776;6.968;2022-07-23T03:04:49;15.00;99.90
56725;DHT22;42608;52.776;6.968;2022-07-23T03:07:16;15.00;99.90
56725;DHT22;42608;52.776;6.968;2022-07-23T03:09:41;15.00;99.90
56725;DHT22;42608;52.776;6.968;2022-07-23T03:12:07;15.00;99.90
56725;DHT22;42608;52.776;6.968;2022-07-23T03:14:32;14.90;99.90
56725;DHT22;42608;52.776;6.968;2022-07-23T03:16:58;14.90;99.90
56725;DHT22;42608;52.776;6.968;2022-07-23T03:19:25;14.90;99.90
56725;DHT22;42608;52.776;6.968;2022-07-23T03:21:50;14.90;99.90
56725;DHT22;42608;52.776;6.968;2022-07-23T03:24:16;14.90;99.90
56725;DHT22;42608;52.776;6.968;2022-07-23T03:26:43;14.80;99.90
56725;DHT22;42608;52.776;6.968;2022-07-23T03:29:09;14.80;99.90
56725;DHT22;42608;52.776;6.968;2022-07-23T03:31:34;14.80;99.90
56725;DHT22;42608;52.776;6.968;2022-07-23T03:34:00;14.80;99.90
56725;DHT22;42608;52.776;6.968;2022-07-23T03:36:26;14.80;99.90
56725;DHT22;42608;52.776;6.968;2022-07-23T03:38:51;14.80;99.90
56725;DHT22;42608;52.776;6.968;2022-07-23T03:41:17;14.70;99.90
56725;DHT22;42608;52.776;6.968;2022-07-23T03:43:43;14.70;99.90
56725;DHT22;42608;52.776;6.968;2022-07-23T03:46:09;14.70;99.90
56725;DHT22;42608;52.776;6.968;2022-07-23T03:48:35;14.70;99.90
56725;DHT22;42608;52.776;6.968;2022-07-23T03:51:00;14.70;99.90
56725;DHT22;42608;52.776;6.968;2022-07-23T03:53:26;14.70;99.90
56725;DHT22;42608;52.776;6.968;2022-07-23T03:55:51;14.60;99.90
56725;DHT22;42608;52.776;6.968;2022-07-23T03:58:17;14.60;99.90
56725;DHT22;42608;52.776;6.968;2022-07-23T04:00:42;14.50;99.90
56725;DHT22;42608;52.776;6.968;2022-07-23T04:03:08;14.50;99.90
56725;DHT22;42608;52.776;6.968;2022-07-23T04:05:34;14.50;99.90
56725;DHT22;42608;52.776;6.968;2022-07-23T04:07:59;14.50;99.90
56725;DHT22;42608;52.776;6.968;2022-07-23T04:10:25;14.50;99.90
56725;DHT22;42608;52.776;6.968;2022-07-23T04:12:50;14.50;99.90
56725;DHT22;42608;52.776;6.968;2022-07-23T04:15:16;14.50;99.90
56725;DHT22;42608;52.776;6.968;2022-07-23T04:17:42;14.50;99.90
56725;DHT22;42608;52.776;6.968;2022-07-23T04:20:09;14.50;99.90
56725;DHT22;42608;52.776;6.968;2022-07-23T04:22:35;14.40;99.90
56725;DHT22;42608;52.776;6.968;2022-07-23T04:25:00;14.30;99.90
56725;DHT22;42608;52.776;6.968;2022-07-23T04:27:26;14.20;99.90
56725;DHT22;42608;52.776;6.968;2022-07-23T04:29:51;14.20;99.90
56725;DHT22;42608;52.776;6.968;2022-07-23T04:32:17;14.20;99.90
56725;DHT22;42608;52.776;6.968;2022-07-23T04:34:42;14.10;99.90
56725;DHT22;42608;52.776;6.968;2022-07-23T04:37:08;14.20;99.90
56725;DHT22;42608;52.776;6.968;2022-07-23T04:39:33;14.10;99.90
56725;DHT22;42608;52.776;6.968;2022-07-23T04:41:59;14.20;99.90
56725;DHT22;42608;52.776;6.968;2022-07-23T04:44:25;14.20;99.90
56725;DHT22;42608;52.776;6.968;2022-07-23T04:46:50;14.20;99.90
56725;DHT22;42608;52.776;6.968;2022-07-23T04:49:16;14.10;99.90
56725;DHT22;42608;52.776;6.968;2022-07-23T04:51:41;14.10;99.90
56725;DHT22;42608;52.776;6.968;2022-07-23T04:54:07;14.10;99.90
56725;DHT22;42608;52.776;6.968;2022-07-23T04:56:32;14.20;99.90
56725;DHT22;42608;52.776;6.968;2022-07-23T04:58:58;14.20;99.90
56725;DHT22;42608;52.776;6.968;2022-07-23T05:01:23;14.20;99.90
56725;DHT22;42608;52.776;6.968;2022-07-23T05:03:49;14.20;99.90
56725;DHT22;42608;52.776;6.968;2022-07-23T05:06:15;14.20;99.90
56725;DHT22;42608;52.776;6.968;2022-07-23T05:08:40;14.30;99.90
56725;DHT22;42608;52.776;6.968;2022-07-23T05:11:06;14.30;99.90
56725;DHT22;42608;52.776;6.968;2022-07-23T05:13:31;14.30;99.90
56725;DHT22;42608;52.776;6.968;2022-07-23T05:15:57;14.30;99.90
56725;DHT22;42608;52.776;6.968;2022-07-23T05:18:22;14.30;99.90
56725;DHT22;42608;52.776;6.968;2022-07-23T05:20:48;14.30;99.90
56725;DHT22;42608;52.776;6.968;2022-07-23T05:23:13;14.30;99.90
56725;DHT22;42608;52.776;6.968;2022-07-23T05:25:39;14.40;99.90
56725;DHT22;42608;52.776;6.968;2022-07-23T05:28:05;14.40;99.90
56725;DHT22;42608;52.776;6.968;2022-07-23T05:30:30;14.40;99.90
56725;DHT22;42608;52.776;6.968;2022-07-23T05:32:56;14.50;99.90
56725;DHT22;42608;52.776;6.968;2022-07-23T05:35:21;14.50;99.90
56725;DHT22;42608;52.776;6.968;2022-07-23T05:37:47;14.50;99.90
56725;DHT22;42608;52.776;6.968;2022-07-23T05:40:12;14.60;99.90
56725;DHT22;42608;52.776;6.968;2022-07-23T05:42:38;14.60;99.90
56725;DHT22;42608;52.776;6.968;2022-07-23T05:45:05;14.70;99.90
56725;DHT22;42608;52.776;6.968;2022-07-23T05:47:41;14.70;99.90
56725;DHT22;42608;52.776;6.968;2022-07-23T05:50:07;14.70;99.90
56725;DHT22;42608;52.776;6.968;2022-07-23T05:52:32;14.80;99.90
56725;DHT22;42608;52.776;6.968;2022-07-23T05:54:58;14.80;99.90
56725;DHT22;42608;52.776;6.968;2022-07-23T05:57:23;14.90;99.90
56725;DHT22;42608;52.776;6.968;2022-07-23T05:59:49;14.90;99.90
56725;DHT22;42608;52.776;6.968;2022-07-23T06:02:14;14.90;99.90
56725;DHT22;42608;52.776;6.968;2022-07-23T06:04:40;15.00;99.90
56725;DHT22;42608;52.776;6.968;2022-07-23T06:07:05;15.00;99.90
56725;DHT22;42608;52.776;6.968;2022-07-23T06:09:31;15.10;99.90
56725;DHT22;42608;52.776;6.968;2022-07-23T06:11:56;15.20;99.90
56725;DHT22;42608;52.776;6.968;2022-07-23T06:14:22;15.20;99.90
56725;DHT22;42608;52.776;6.968;2022-07-23T06:16:48;15.20;99.90
56725;DHT22;42608;52.776;6.968;2022-07-23T06:19:13;15.20;99.90
56725;DHT22;42608;52.776;6.968;2022-07-23T06:21:39;15.20;99.90
56725;DHT22;42608;52.776;6.968;2022-07-23T06:24:04;15.30;99.90
56725;DHT22;42608;52.776;6.968;2022-07-23T06:26:30;15.30;99.90
56725;DHT22;42608;52.776;6.968;2022-07-23T06:28:55;15.30;99.90
56725;DHT22;42608;52.776;6.968;2022-07-23T06:31:21;15.30;99.90
56725;DHT22;42608;52.776;6.968;2022-07-23T06:33:47;15.40;99.90
56725;DHT22;42608;52.776;6.968;2022-07-23T06:36:12;15.40;99.90
56725;DHT22;42608;52.776;6.968;2022-07-23T06:38:38;15.50;99.90
56725;DHT22;42608;52.776;6.968;2022-07-23T06:41:03;15.50;99.90
56725;DHT22;42608;52.776;6.968;2022-07-23T06:43:30;15.50;99.90
56725;DHT22;42608;52.776;6.968;2022-07-23T06:45:55;15.60;99.90
56725;DHT22;42608;52.776;6.968;2022-07-23T06:48:21;15.60;99.90
56725;DHT22;42608;52.776;6.968;2022-07-23T06:50:47;15.70;99.90
56725;DHT22;42608;52.776;6.968;2022-07-23T06:53:13;15.70;99.90
56725;DHT22;42608;52.776;6.968;2022-07-23T06:55:38;15.80;99.90
56725;DHT22;42608;52.776;6.968;2022-07-23T06:58:05;15.90;99.90
56725;DHT22;42608;52.776;6.968;2022-07-23T07:00:31;16.00;99.90
56725;DHT22;42608;52.776;6.968;2022-07-23T07:02:57;16.00;99.90
56725;DHT22;42608;52.776;6.968;2022-07-23T07:05:23;16.00;99.90
56725;DHT22;42608;52.776;6.968;2022-07-23T07:07:50;16.00;99.90
56725;DHT22;42608;52.776;6.968;2022-07-23T07:10:16;16.10;99.90
56725;DHT22;42608;52.776;6.968;2022-07-23T07:12:42;16.10;99.90
56725;DHT22;42608;52.776;6.968;2022-07-23T07:15:08;16.10;99.90
56725;DHT22;42608;52.776;6.968;2022-07-23T07:17:34;16.10;99.90
56725;DHT22;42608;52.776;6.968;2022-07-23T07:19:59;16.10;99.90
56725;DHT22;42608;52.776;6.968;2022-07-23T07:22:25;16.20;99.90
56725;DHT22;42608;52.776;6.968;2022-07-23T07:24:50;16.30;99.90
56725;DHT22;42608;52.776;6.968;2022-07-23T07:27:16;16.20;99.90
56725;DHT22;42608;52.776;6.968;2022-07-23T07:29:41;16.30;99.90
56725;DHT22;42608;52.776;6.968;2022-07-23T07:32:07;16.30;99.90
56725;DHT22;42608;52.776;6.968;2022-07-23T07:34:33;16.40;99.90
56725;DHT22;42608;52.776;6.968;2022-07-23T07:36:58;16.50;99.90
56725;DHT22;42608;52.776;6.968;2022-07-23T07:39:24;16.60;99.90
56725;DHT22;42608;52.776;6.968;2022-07-23T07:41:49;16.60;99.90
56725;DHT22;42608;52.776;6.968;2022-07-23T07:44:15;16.60;99.90
56725;DHT22;42608;52.776;6.968;2022-07-23T07:46:40;16.60;99.90
56725;DHT22;42608;52.776;6.968;2022-07-23T07:49:06;16.60;99.90
56725;DHT22;42608;52.776;6.968;2022-07-23T07:51:31;16.70;99.90
56725;DHT22;42608;52.776;6.968;2022-07-23T07:53:58;16.70;99.90
56725;DHT22;42608;52.776;6.968;2022-07-23T07:56:23;16.70;99.90
56725;DHT22;42608;52.776;6.968;2022-07-23T07:58:49;16.70;99.90
56725;DHT22;42608;52.776;6.968;2022-07-23T08:01:14;16.80;99.90
56725;DHT22;42608;52.776;6.968;2022-07-23T08:03:40;16.80;99.90
56725;DHT22;42608;52.776;6.968;2022-07-23T08:06:05;16.80;99.90
56725;DHT22;42608;52.776;6.968;2022-07-23T08:08:31;16.90;99.90
56725;DHT22;42608;52.776;6.968;2022-07-23T08:10:57;17.00;99.90
56725;DHT22;42608;52.776;6.968;2022-07-23T08:13:22;17.10;99.90
56725;DHT22;42608;52.776;6.968;2022-07-23T08:15:48;17.10;99.90
56725;DHT22;42608;52.776;6.968;2022-07-23T08:18:13;17.10;99.90
56725;DHT22;42608;52.776;6.968;2022-07-23T08:20:39;17.20;99.90
56725;DHT22;42608;52.776;6.968;2022-07-23T08:23:05;17.20;99.90
56725;DHT22;42608;52.776;6.968;2022-07-23T08:25:34;17.30;99.90
56725;DHT22;42608;52.776;6.968;2022-07-23T08:28:01;17.40;99.90
56725;DHT22;42608;52.776;6.968;2022-07-23T08:30:27;17.40;99.90
56725;DHT22;42608;52.776;6.968;2022-07-23T08:32:54;17.40;99.90
56725;DHT22;42608;52.776;6.968;2022-07-23T08:35:25;17.40;99.90
56725;DHT22;42608;52.776;6.968;2022-07-23T08:37:51;17.50;99.90
56725;DHT22;42608;52.776;6.968;2022-07-23T08:40:17;17.60;99.90
56725;DHT22;42608;52.776;6.968;2022-07-23T08:42:43;17.70;99.90
56725;DHT22;42608;52.776;6.968;2022-07-23T08:45:10;17.80;99.90
56725;DHT22;42608;52.776;6.968;2022-07-23T08:47:39;17.70;99.90
56725;DHT22;42608;52.776;6.968;2022-07-23T08:50:06;17.70;99.90
56725;DHT22;42608;52.776;6.968;2022-07-23T08:52:32;17.60;99.90
56725;DHT22;42608;52.776;6.968;2022-07-23T08:54:58;17.70;99.90
56725;DHT22;42608;52.776;6.968;2022-07-23T08:57:24;17.70;99.90
56725;DHT22;42608;52.776;6.968;2022-07-23T08:59:49;17.70;99.90
56725;DHT22;42608;52.776;6.968;2022-07-23T09:02:15;17.80;99.90
56725;DHT22;42608;52.776;6.968;2022-07-23T09:04:41;17.90;99.90
56725;DHT22;42608;52.776;6.968;2022-07-23T09:07:06;18.00;99.90
56725;DHT22;42608;52.776;6.968;2022-07-23T09:09:32;18.00;99.90
56725;DHT22;42608;52.776;6.968;2022-07-23T09:12:05;18.00;99.90
56725;DHT22;42608;52.776;6.968;2022-07-23T09:14:38;18.10;99.90
56725;DHT22;42608;52.776;6.968;2022-07-23T09:17:14;18.10;99.90
56725;DHT22;42608;52.776;6.968;2022-07-23T09:19:40;18.00;99.90
56725;DHT22;42608;52.776;6.968;2022-07-23T09:22:25;18.00;99.90
56725;DHT22;42608;52.776;6.968;2022-07-23T09:30:13;18.10;99.90
56725;DHT22;42608;52.776;6.968;2022-07-23T09:32:39;18.20;99.90
56725;DHT22;42608;52.776;6.968;2022-07-23T09:35:04;18.30;99.90
56725;DHT22;42608;52.776;6.968;2022-07-23T09:37:30;18.30;99.90
56725;DHT22;42608;52.776;6.968;2022-07-23T09:40:03;18.30;99.90
56725;DHT22;42608;52.776;6.968;2022-07-23T09:42:29;18.40;99.90
56725;DHT22;42608;52.776;6.968;2022-07-23T09:44:55;18.30;99.90
56725;DHT22;42608;52.776;6.968;2022-07-23T09:47:22;18.30;99.90
56725;DHT22;42608;52.776;6.968;2022-07-23T09:50:00;18.30;99.90
56725;DHT22;42608;52.776;6.968;2022-07-23T09:52:30;18.30;99.90
56725;DHT22;42608;52.776;6.968;2022-07-23T09:54:59;18.30;99.90
56725;DHT22;42608;52.776;6.968;2022-07-23T09:57:26;18.40;99.90
56725;DHT22;42608;52.776;6.968;2022-07-23T09:59:52;18.40;99.90
56725;DHT22;42608;52.776;6.968;2022-07-23T10:02:17;18.50;99.90
56725;DHT22;42608;52.776;6.968;2022-07-23T10:04:43;18.60;99.90
56725;DHT22;42608;52.776;6.968;2022-07-23T10:07:09;18.70;99.90
56725;DHT22;42608;52.776;6.968;2022-07-23T10:09:36;18.70;99.90
56725;DHT22;42608;52.776;6.968;2022-07-23T10:12:03;18.80;99.90
56725;DHT22;42608;52.776;6.968;2022-07-23T10:14:45;18.80;99.90
56725;DHT22;42608;52.776;6.968;2022-07-23T10:17:11;18.80;99.90
56725;DHT22;42608;52.776;6.968;2022-07-23T10:19:37;18.80;99.90
56725;DHT22;42608;52.776;6.968;2022-07-23T10:22:04;18.80;99.90
56725;DHT22;42608;52.776;6.968;2022-07-23T10:24:47;18.80;99.90
56725;DHT22;42608;52.776;6.968;2022-07-23T10:28:02;18.90;99.90
56725;DHT22;42608;52.776;6.968;2022-07-23T10:30:02;18.90;99.90
56725;DHT22;42608;52.776;6.968;2022-07-23T10:32:51;18.90;99.90
56725;DHT22;42608;52.776;6.968;2022-07-23T10:35:24;19.10;99.90
56725;DHT22;42608;52.776;6.968;2022-07-23T10:37:53;19.10;99.90
56725;DHT22;42608;52.776;6.968;2022-07-23T10:40:21;19.20;99.90
56725;DHT22;42608;52.776;6.968;2022-07-23T10:42:51;19.10;99.90
56725;DHT22;42608;52.776;6.968;2022-07-23T10:47:49;19.20;99.90
56725;DHT22;42608;52.776;6.968;2022-07-23T10:53:18;19.30;99.90
56725;DHT22;42608;52.776;6.968;2022-07-23T10:58:04;19.50;99.90
56725;DHT22;42608;52.776;6.968;2022-07-23T11:00:31;19.50;99.90
56725;DHT22;42608;52.776;6.968;2022-07-23T11:03:00;19.60;99.90
56725;DHT22;42608;52.776;6.968;2022-07-23T11:05:39;19.60;99.90
56725;DHT22;42608;52.776;6.968;2022-07-23T11:10:33;19.60;99.90
56725;DHT22;42608;52.776;6.968;2022-07-23T11:24:02;20.10;99.90
56725;DHT22;42608;52.776;6.968;2022-07-23T11:31:54;20.10;99.90
56725;DHT22;42608;52.776;6.968;2022-07-23T11:36:54;20.00;99.90
56725;DHT22;42608;52.776;6.968;2022-07-23T11:39:20;20.00;99.90
56725;DHT22;42608;52.776;6.968;2022-07-23T11:41:46;20.10;99.90
56725;DHT22;42608;52.776;6.968;2022-07-23T11:44:28;20.10;99.90
56725;DHT22;42608;52.776;6.968;2022-07-23T11:47:05;20.20;99.90
56725;DHT22;42608;52.776;6.968;2022-07-23T11:49:31;20.30;99.90
56725;DHT22;42608;52.776;6.968;2022-07-23T11:52:10;20.40;99.90
56725;DHT22;42608;52.776;6.968;2022-07-23T11:54:40;20.40;99.90
56725;DHT22;42608;52.776;6.968;2022-07-23T11:57:11;20.50;99.90
56725;DHT22;42608;52.776;6.968;2022-07-23T11:59:37;20.60;99.90
56725;DHT22;42608;52.776;6.968;2022-07-23T12:02:04;20.70;99.90
56725;DHT22;42608;52.776;6.968;2022-07-23T12:04:49;20.70;99.90
56725;DHT22;42608;52.776;6.968;2022-07-23T12:09:53;20.60;99.90
56725;DHT22;42608;52.776;6.968;2022-07-23T12:12:18;20.50;99.90
56725;DHT22;42608;52.776;6.968;2022-07-23T12:14:55;20.60;99.90
56725;DHT22;42608;52.776;6.968;2022-07-23T12:17:24;20.60;99.90
56725;DHT22;42608;52.776;6.968;2022-07-23T12:19:51;20.60;99.90
56725;DHT22;42608;52.776;6.968;2022-07-23T12:22:17;20.60;99.90
56725;DHT22;42608;52.776;6.968;2022-07-23T12:27:21;20.70;99.90
56725;DHT22;42608;52.776;6.968;2022-07-23T12:29:47;20.80;99.90
56725;DHT22;42608;52.776;6.968;2022-07-23T12:32:20;20.90;99.90
56725;DHT22;42608;52.776;6.968;2022-07-23T12:34:46;21.00;99.90
56725;DHT22;42608;52.776;6.968;2022-07-23T12:37:26;21.00;99.90
56725;DHT22;42608;52.776;6.968;2022-07-23T12:39:51;21.10;99.90
56725;DHT22;42608;52.776;6.968;2022-07-23T12:42:17;21.10;99.90
56725;DHT22;42608;52.776;6.968;2022-07-23T12:45:02;21.00;99.90
56725;DHT22;42608;52.776;6.968;2022-07-23T12:47:27;20.80;99.90
56725;DHT22;42608;52.776;6.968;2022-07-23T12:49:53;21.00;99.90
56725;DHT22;42608;52.776;6.968;2022-07-23T12:52:18;21.00;99.90
56725;DHT22;42608;52.776;6.968;2022-07-23T12:54:44;21.10;99.90
56725;DHT22;42608;52.776;6.968;2022-07-23T12:57:09;21.30;99.90
56725;DHT22;42608;52.776;6.968;2022-07-23T12:59:35;21.40;99.90
56725;DHT22;42608;52.776;6.968;2022-07-23T13:02:01;21.60;99.90
56725;DHT22;42608;52.776;6.968;2022-07-23T13:04:26;21.70;99.90
56725;DHT22;42608;52.776;6.968;2022-07-23T13:06:53;21.90;99.90
56725;DHT22;42608;52.776;6.968;2022-07-23T13:09:19;22.00;99.90
56725;DHT22;42608;52.776;6.968;2022-07-23T13:11:46;22.10;99.90
56725;DHT22;42608;52.776;6.968;2022-07-23T13:14:12;22.20;99.90
56725;DHT22;42608;52.776;6.968;2022-07-23T13:16:38;22.30;99.90
56725;DHT22;42608;52.776;6.968;2022-07-23T13:19:04;22.40;99.70
56725;DHT22;42608;52.776;6.968;2022-07-23T13:21:30;22.40;99.90
56725;DHT22;42608;52.776;6.968;2022-07-23T13:23:56;22.40;99.80
56725;DHT22;42608;52.776;6.968;2022-07-23T13:26:22;22.50;99.70
56725;DHT22;42608;52.776;6.968;2022-07-23T13:28:47;22.50;99.90
56725;DHT22;42608;52.776;6.968;2022-07-23T13:31:13;22.60;99.90
56725;DHT22;42608;52.776;6.968;2022-07-23T13:33:39;22.60;99.90
56725;DHT22;42608;52.776;6.968;2022-07-23T13:36:05;22.60;99.90
56725;DHT22;42608;52.776;6.968;2022-07-23T13:38:30;22.60;99.60
56725;DHT22;42608;52.776;6.968;2022-07-23T13:40:56;22.60;99.20
56725;DHT22;42608;52.776;6.968;2022-07-23T13:43:22;22.60;99.00
56725;DHT22;42608;52.776;6.968;2022-07-23T13:45:49;22.40;99.20
56725;DHT22;42608;52.776;6.968;2022-07-23T13:48:15;22.30;99.90
56725;DHT22;42608;52.776;6.968;2022-07-23T13:50:41;22.10;99.90
56725;DHT22;42608;52.776;6.968;2022-07-23T13:53:08;22.00;99.90
56725;DHT22;42608;52.776;6.968;2022-07-23T13:55:35;21.90;99.90
56725;DHT22;42608;52.776;6.968;2022-07-23T13:58:01;22.00;99.90
56725;DHT22;42608;52.776;6.968;2022-07-23T14:00:27;22.00;99.90
56725;DHT22;42608;52.776;6.968;2022-07-23T14:02:53;22.00;99.90
56725;DHT22;42608;52.776;6.968;2022-07-23T14:05:19;22.00;99.90
56725;DHT22;42608;52.776;6.968;2022-07-23T14:07:45;22.00;99.90
56725;DHT22;42608;52.776;6.968;2022-07-23T14:10:12;22.00;99.90
56725;DHT22;42608;52.776;6.968;2022-07-23T14:12:38;22.00;99.90
56725;DHT22;42608;52.776;6.968;2022-07-23T14:15:04;21.90;99.90
56725;DHT22;42608;52.776;6.968;2022-07-23T14:17:30;21.90;99.90
56725;DHT22;42608;52.776;6.968;2022-07-23T14:19:57;21.80;99.90
56725;DHT22;42608;52.776;6.968;2022-07-23T14:22:22;21.80;99.90
56725;DHT22;42608;52.776;6.968;2022-07-23T14:24:48;21.80;99.90
56725;DHT22;42608;52.776;6.968;2022-07-23T14:27:14;21.80;99.90
56725;DHT22;42608;52.776;6.968;2022-07-23T14:29:39;21.80;99.90
56725;DHT22;42608;52.776;6.968;2022-07-23T14:32:05;21.90;99.90
56725;DHT22;42608;52.776;6.968;2022-07-23T14:34:31;22.10;99.90
56725;DHT22;42608;52.776;6.968;2022-07-23T14:36:58;22.10;99.90
56725;DHT22;42608;52.776;6.968;2022-07-23T14:39:23;22.10;99.90
56725;DHT22;42608;52.776;6.968;2022-07-23T14:41:49;22.10;99.90
56725;DHT22;42608;52.776;6.968;2022-07-23T14:44:14;22.10;99.90
56725;DHT22;42608;52.776;6.968;2022-07-23T14:46:40;22.10;99.90
56725;DHT22;42608;52.776;6.968;2022-07-23T14:49:06;22.00;99.90
56725;DHT22;42608;52.776;6.968;2022-07-23T14:51:31;22.00;99.90
56725;DHT22;42608;52.776;6.968;2022-07-23T14:53:57;22.10;99.90
56725;DHT22;42608;52.776;6.968;2022-07-23T14:56:22;22.20;99.90
56725;DHT22;42608;52.776;6.968;2022-07-23T14:58:48;22.40;99.90
56725;DHT22;42608;52.776;6.968;2022-07-23T15:01:13;22.60;99.90
56725;DHT22;42608;52.776;6.968;2022-07-23T15:03:39;22.70;99.90
56725;DHT22;42608;52.776;6.968;2022-07-23T15:06:05;22.80;99.90
56725;DHT22;42608;52.776;6.968;2022-07-23T15:08:30;22.80;99.90
56725;DHT22;42608;52.776;6.968;2022-07-23T15:10:56;22.90;99.90
56725;DHT22;42608;52.776;6.968;2022-07-23T15:13:21;23.00;99.90
56725;DHT22;42608;52.776;6.968;2022-07-23T15:15:47;23.10;99.90
56725;DHT22;42608;52.776;6.968;2022-07-23T15:18:12;23.10;99.90
56725;DHT22;42608;52.776;6.968;2022-07-23T15:20:38;23.30;99.90
56725;DHT22;42608;52.776;6.968;2022-07-23T15:23:04;23.40;99.80
56725;DHT22;42608;52.776;6.968;2022-07-23T15:25:30;23.40;99.80
56725;DHT22;42608;52.776;6.968;2022-07-23T15:27:56;23.40;98.90
56725;DHT22;42608;52.776;6.968;2022-07-23T15:30:23;23.30;98.70
56725;DHT22;42608;52.776;6.968;2022-07-23T15:32:49;23.40;98.40
56725;DHT22;42608;52.776;6.968;2022-07-23T15:35:14;23.40;97.50
56725;DHT22;42608;52.776;6.968;2022-07-23T15:37:40;23.50;98.00
56725;DHT22;42608;52.776;6.968;2022-07-23T15:40:07;23.50;98.00
56725;DHT22;42608;52.776;6.968;2022-07-23T15:42:33;23.50;97.00
56725;DHT22;42608;52.776;6.968;2022-07-23T15:44:58;23.60;96.30
56725;DHT22;42608;52.776;6.968;2022-07-23T15:47:24;23.60;96.20
56725;DHT22;42608;52.776;6.968;2022-07-23T15:49:49;23.70;97.60
56725;DHT22;42608;52.776;6.968;2022-07-23T15:52:15;23.60;97.20
56725;DHT22;42608;52.776;6.968;2022-07-23T15:54:41;23.60;97.30
56725;DHT22;42608;52.776;6.968;2022-07-23T15:57:07;23.60;98.10
56725;DHT22;42608;52.776;6.968;2022-07-23T15:59:33;23.60;97.40
56725;DHT22;42608;52.776;6.968;2022-07-23T16:01:59;23.60;96.70
56725;DHT22;42608;52.776;6.968;2022-07-23T16:04:24;23.70;96.30